Time;durP1;ratioP1;P1;durP2;ratioP2;P2;SDS_P1;SDS_P2;PMS_P1;PMS_P2;Temp;Humidity;BMP_temperature;BMP_pressure;BME280_temperature;BME280_humidity;BME280_pressure;Samples;Min_cycle;Max_cycle;Signal;HPM_P1;HPM_P2
2022/04/24 00:02:18;;;;;;;8.10;6.13;;;;;;;;;;5036140;28;20042;-62
2022/04/24 00:04:44;;;;;;;12.60;7.00;;;;;;;;;;5035085;28;20119;-62
2022/04/24 00:07:10;;;;;;;10.32;6.57;;;;;;;;;;5035776;28;20399;-62
2022/04/24 00:09:37;;;;;;;10.32;6.80;;;;;;;;;;5036115;28;20080;-62
2022/04/24 00:12:04;;;;;;;8.18;6.82;;;;;;;;;;5035280;28;20042;-62
2022/04/24 00:14:32;;;;;;;10.30;6.90;;;;;;;;;;5035786;28;20037;-62
2022/04/24 00:16:58;;;;;;;8.18;6.28;;;;;;;;;;5035471;28;20045;-62
2022/04/24 00:19:24;;;;;;;9.98;6.13;;;;;;;;;;5034396;28;20044;-62
2022/04/24 00:21:51;;;;;;;11.05;6.50;;;;;;;;;;5034382;28;20053;-62
2022/04/24 00:24:17;;;;;;;9.68;6.93;;;;;;;;;;5035807;28;20045;-62
2022/04/24 00:26:43;;;;;;;9.88;6.75;;;;;;;;;;5033566;28;20048;-62
2022/04/24 00:29:09;;;;;;;8.73;6.45;;;;;;;;;;5035468;28;20129;-62
2022/04/24 00:31:36;;;;;;;9.50;6.10;;;;;;;;;;5035629;28;20318;-62
2022/04/24 00:34:02;;;;;;;7.50;6.65;;;;;;;;;;5035100;28;20041;-62
2022/04/24 00:36:28;;;;;;;9.45;6.60;;;;;;;;;;5035176;28;20407;-62
2022/04/24 00:38:54;;;;;;;9.27;6.50;;;;;;;;;;5034460;28;20041;-62
2022/04/24 00:41:20;;;;;;;7.63;6.25;;;;;;;;;;5035538;28;20041;-62
2022/04/24 00:43:52;;;;;;;8.70;6.03;;;;;;;;;;5034086;28;20550;-62
2022/04/24 00:46:36;;;;;;;9.25;6.55;;;;;;;;;;5035812;28;20435;-62
2022/04/24 00:49:03;;;;;;;9.35;6.05;;;;;;;;;;5034301;28;20044;-62
2022/04/24 00:51:31;;;;;;;9.07;5.90;;;;;;;;;;5037871;28;20037;-62
2022/04/24 00:53:57;;;;;;;8.93;6.45;;;;;;;;;;5038931;28;20041;-62
2022/04/24 00:56:30;;;;;;;8.43;5.95;;;;;;;;;;5037263;28;20210;-62
2022/04/24 00:58:56;;;;;;;7.05;6.07;;;;;;;;;;5038880;28;20049;-62
2022/04/24 01:01:28;;;;;;;7.60;6.25;;;;;;;;;;5037642;28;20049;-62
2022/04/24 01:03:56;;;;;;;11.02;6.43;;;;;;;;;;5039229;28;20037;-62
2022/04/24 01:06:22;;;;;;;12.48;7.07;;;;;;;;;;5039326;28;20141;-62
2022/04/24 01:08:48;;;;;;;9.93;6.40;;;;;;;;;;5038872;28;20051;-62
2022/04/24 01:11:14;;;;;;;6.68;5.57;;;;;;;;;;5038260;28;20041;-62
2022/04/24 01:13:40;;;;;;;8.75;5.88;;;;;;;;;;5039579;28;20041;-62
2022/04/24 01:16:06;;;;;;;9.02;6.20;;;;;;;;;;5039259;28;20072;-62
2022/04/24 01:18:33;;;;;;;10.40;6.25;;;;;;;;;;5052996;28;20419;-62
2022/04/24 01:21:06;;;;;;;8.18;6.07;;;;;;;;;;5037584;28;20041;-62
2022/04/24 01:23:32;;;;;;;9.00;6.15;;;;;;;;;;5038624;28;20049;-62
2022/04/24 01:25:58;;;;;;;9.57;6.90;;;;;;;;;;5036539;28;20034;-62
2022/04/24 01:28:24;;;;;;;8.85;6.65;;;;;;;;;;5039139;28;20044;-62
2022/04/24 01:30:50;;;;;;;9.23;6.50;;;;;;;;;;5039017;28;20044;-62
2022/04/24 01:33:16;;;;;;;9.27;6.65;;;;;;;;;;5037848;28;20080;-62
2022/04/24 01:35:42;;;;;;;11.05;6.50;;;;;;;;;;5039641;28;20045;-62
2022/04/24 01:38:10;;;;;;;7.78;6.40;;;;;;;;;;5038906;28;20034;-62
2022/04/24 01:40:36;;;;;;;8.75;6.25;;;;;;;;;;5038785;28;20069;-62
2022/04/24 01:43:02;;;;;;;9.75;6.85;;;;;;;;;;5038733;28;20077;-62
2022/04/24 01:45:28;;;;;;;10.90;6.60;;;;;;;;;;5038681;28;20515;-62
2022/04/24 01:47:56;;;;;;;10.05;7.10;;;;;;;;;;5037627;28;20033;-62
2022/04/24 01:50:24;;;;;;;8.07;6.40;;;;;;;;;;5037330;28;20184;-62
2022/04/24 01:52:50;;;;;;;7.32;6.15;;;;;;;;;;5038135;28;20045;-62
2022/04/24 01:55:16;;;;;;;10.40;6.90;;;;;;;;;;5037423;28;20037;-62
2022/04/24 01:57:42;;;;;;;8.50;7.20;;;;;;;;;;5037655;28;20037;-62
2022/04/24 02:00:09;;;;;;;7.60;6.20;;;;;;;;;;5035888;28;20109;-62
2022/04/24 02:02:35;;;;;;;9.30;6.93;;;;;;;;;;5036216;28;20045;-62
2022/04/24 02:05:01;;;;;;;8.32;6.30;;;;;;;;;;5037384;28;20077;-62
2022/04/24 02:07:28;;;;;;;11.07;6.57;;;;;;;;;;5037866;28;20656;-63
2022/04/24 02:09:54;;;;;;;7.68;6.53;;;;;;;;;;5036262;28;20045;-62
2022/04/24 02:12:20;;;;;;;10.20;6.82;;;;;;;;;;5038265;28;20037;-62
2022/04/24 02:14:46;;;;;;;10.27;7.57;;;;;;;;;;5037773;28;20048;-62
2022/04/24 02:17:12;;;;;;;9.07;6.63;;;;;;;;;;5036739;28;20427;-63
2022/04/24 02:19:39;;;;;;;10.20;6.78;;;;;;;;;;5036726;28;20064;-62
2022/04/24 02:22:05;;;;;;;12.55;6.75;;;;;;;;;;5036065;28;20060;-62
2022/04/24 02:24:31;;;;;;;9.80;7.00;;;;;;;;;;5036346;28;20077;-62
2022/04/24 02:26:59;;;;;;;12.00;7.10;;;;;;;;;;5037318;28;20085;-62
2022/04/24 02:29:27;;;;;;;9.55;6.63;;;;;;;;;;5037318;28;20038;-62
2022/04/24 02:31:53;;;;;;;8.27;6.32;;;;;;;;;;5035376;28;20053;-62
2022/04/24 02:34:19;;;;;;;9.32;6.93;;;;;;;;;;5038149;28;20052;-62
2022/04/24 02:36:45;;;;;;;9.57;7.18;;;;;;;;;;5037358;28;20037;-62
2022/04/24 02:39:11;;;;;;;12.88;7.50;;;;;;;;;;5037475;28;20049;-62
2022/04/24 02:41:37;;;;;;;8.70;6.70;;;;;;;;;;5038130;28;20043;-62
2022/04/24 02:44:03;;;;;;;8.07;6.90;;;;;;;;;;5037566;28;20373;-62
2022/04/24 02:46:29;;;;;;;10.90;7.13;;;;;;;;;;5035139;28;20115;-62
2022/04/24 02:48:56;;;;;;;9.60;7.30;;;;;;;;;;5036596;28;20041;-62
2022/04/24 02:51:22;;;;;;;7.78;6.65;;;;;;;;;;5037913;28;20037;-62
2022/04/24 02:53:48;;;;;;;8.63;6.57;;;;;;;;;;5037208;28;20487;-62
2022/04/24 02:56:14;;;;;;;8.32;6.75;;;;;;;;;;5037848;28;20171;-62
2022/04/24 02:58:40;;;;;;;10.07;7.40;;;;;;;;;;5035622;28;20061;-62
2022/04/24 03:01:08;;;;;;;7.70;6.90;;;;;;;;;;5037135;28;20037;-62
2022/04/24 03:03:37;;;;;;;9.95;7.22;;;;;;;;;;5035245;28;20050;-62
2022/04/24 03:06:04;;;;;;;10.05;7.30;;;;;;;;;;5037127;28;20057;-62
2022/04/24 03:08:30;;;;;;;10.38;7.25;;;;;;;;;;5037356;28;20042;-62
2022/04/24 03:10:56;;;;;;;10.38;7.10;;;;;;;;;;5037346;28;20037;-62
2022/04/24 03:13:22;;;;;;;10.02;7.25;;;;;;;;;;5036237;28;20063;-62
2022/04/24 03:15:48;;;;;;;9.93;7.50;;;;;;;;;;5037417;28;20033;-62
2022/04/24 03:18:14;;;;;;;9.32;6.60;;;;;;;;;;5036803;28;20041;-62
2022/04/24 03:20:40;;;;;;;10.85;7.50;;;;;;;;;;5037196;28;20048;-62
2022/04/24 03:23:06;;;;;;;8.70;6.78;;;;;;;;;;5035397;28;20400;-62
2022/04/24 03:25:32;;;;;;;9.55;7.30;;;;;;;;;;5036162;28;20033;-62
2022/04/24 03:27:58;;;;;;;9.02;7.00;;;;;;;;;;5036717;28;20075;-62
2022/04/24 03:30:24;;;;;;;8.82;6.93;;;;;;;;;;5037458;28;20038;-62
2022/04/24 03:32:50;;;;;;;9.65;7.05;;;;;;;;;;5036574;28;20030;-62
2022/04/24 03:35:18;;;;;;;9.90;7.38;;;;;;;;;;5036902;28;20052;-62
2022/04/24 03:37:44;;;;;;;9.45;7.28;;;;;;;;;;5036991;28;20393;-62
2022/04/24 03:40:10;;;;;;;9.40;7.40;;;;;;;;;;5035020;28;20128;-62
2022/04/24 03:42:36;;;;;;;9.15;6.85;;;;;;;;;;5035602;28;20188;-62
2022/04/24 03:45:06;;;;;;;11.55;7.05;;;;;;;;;;5036702;28;20041;-62
2022/04/24 03:47:32;;;;;;;9.88;6.85;;;;;;;;;;5050771;28;20059;-62
2022/04/24 03:49:58;;;;;;;9.85;7.22;;;;;;;;;;5036044;28;20488;-62
2022/04/24 03:52:24;;;;;;;11.38;7.00;;;;;;;;;;5035763;28;20040;-62
2022/04/24 03:54:50;;;;;;;8.50;7.10;;;;;;;;;;5033771;28;20044;-62
2022/04/24 03:57:16;;;;;;;7.93;6.72;;;;;;;;;;5036007;28;20389;-62
2022/04/24 03:59:42;;;;;;;7.88;6.90;;;;;;;;;;5035383;28;20052;-62
2022/04/24 04:02:08;;;;;;;7.90;6.57;;;;;;;;;;5034670;28;20033;-62
2022/04/24 04:04:34;;;;;;;9.15;7.47;;;;;;;;;;5035621;28;20049;-62
2022/04/24 04:07:01;;;;;;;9.52;7.40;;;;;;;;;;5035784;28;20056;-62
2022/04/24 04:09:27;;;;;;;8.65;7.18;;;;;;;;;;5035340;28;20041;-62
2022/04/24 04:11:53;;;;;;;9.27;6.90;;;;;;;;;;5034645;28;20059;-62
2022/04/24 04:14:21;;;;;;;11.25;6.75;;;;;;;;;;5035804;28;20183;-62
2022/04/24 04:16:47;;;;;;;9.90;6.97;;;;;;;;;;5035769;28;20500;-62
2022/04/24 04:19:16;;;;;;;8.48;6.78;;;;;;;;;;5036092;28;20261;-62
2022/04/24 04:21:43;;;;;;;9.57;7.40;;;;;;;;;;5034439;28;20057;-62
2022/04/24 04:24:09;;;;;;;11.10;7.35;;;;;;;;;;5035172;28;20472;-62
2022/04/24 04:26:35;;;;;;;8.65;7.25;;;;;;;;;;5035966;28;20037;-62
2022/04/24 04:29:01;;;;;;;10.25;6.90;;;;;;;;;;5035849;28;20421;-62
2022/04/24 04:31:27;;;;;;;14.07;7.78;;;;;;;;;;5035346;28;20111;-62
2022/04/24 04:33:53;;;;;;;10.20;7.18;;;;;;;;;;5036178;28;20468;-62
2022/04/24 04:36:20;;;;;;;10.63;6.88;;;;;;;;;;5036120;28;20468;-62
2022/04/24 04:38:46;;;;;;;12.10;7.35;;;;;;;;;;5034007;28;20059;-62
2022/04/24 04:41:12;;;;;;;8.52;6.72;;;;;;;;;;5035842;28;20104;-62
2022/04/24 04:43:38;;;;;;;9.20;7.03;;;;;;;;;;5035555;28;20041;-62
2022/04/24 04:46:04;;;;;;;11.13;7.55;;;;;;;;;;5035382;28;20045;-62
2022/04/24 04:48:30;;;;;;;9.48;7.53;;;;;;;;;;5033578;28;20048;-62
2022/04/24 04:50:56;;;;;;;8.90;6.53;;;;;;;;;;5035351;28;20649;-62
2022/04/24 04:53:22;;;;;;;14.32;7.35;;;;;;;;;;5034212;28;20484;-62
2022/04/24 04:55:49;;;;;;;12.52;7.43;;;;;;;;;;5035096;28;20085;-62
2022/04/24 04:58:15;;;;;;;13.65;7.45;;;;;;;;;;5034850;28;20049;-62
2022/04/24 05:00:41;;;;;;;13.20;7.70;;;;;;;;;;5034468;28;20045;-62
2022/04/24 05:03:07;;;;;;;11.82;7.18;;;;;;;;;;5035402;28;20491;-62
2022/04/24 05:05:33;;;;;;;9.15;6.88;;;;;;;;;;5035050;28;20328;-62
2022/04/24 05:07:59;;;;;;;10.75;7.72;;;;;;;;;;5034350;28;20500;-62
2022/04/24 05:10:25;;;;;;;10.43;6.75;;;;;;;;;;5035407;28;20045;-62
2022/04/24 05:12:51;;;;;;;10.32;6.97;;;;;;;;;;5035325;28;20042;-62
2022/04/24 05:15:17;;;;;;;10.50;7.30;;;;;;;;;;5035127;28;20392;-62
2022/04/24 05:17:44;;;;;;;9.98;6.57;;;;;;;;;;5035053;28;20045;-62
2022/04/24 05:20:11;;;;;;;8.73;7.13;;;;;;;;;;5034518;28;20045;-62
2022/04/24 05:22:37;;;;;;;8.90;6.45;;;;;;;;;;5033781;28;20041;-62
2022/04/24 05:25:05;;;;;;;9.15;6.80;;;;;;;;;;5033928;28;20435;-61
2022/04/24 05:27:31;;;;;;;11.52;6.78;;;;;;;;;;5033357;28;20045;-62
2022/04/24 05:29:58;;;;;;;13.63;7.32;;;;;;;;;;5033847;28;20037;-62
2022/04/24 05:32:24;;;;;;;10.73;6.88;;;;;;;;;;5034370;28;20096;-62
2022/04/24 05:34:50;;;;;;;11.85;7.00;;;;;;;;;;5035098;28;20253;-62
2022/04/24 05:37:17;;;;;;;8.27;6.50;;;;;;;;;;5035952;28;20059;-62
2022/04/24 05:39:44;;;;;;;9.82;6.68;;;;;;;;;;5037674;28;20112;-62
2022/04/24 05:42:10;;;;;;;9.23;6.63;;;;;;;;;;5037915;28;20044;-62
2022/04/24 05:44:36;;;;;;;10.13;6.75;;;;;;;;;;5037618;28;20116;-62
2022/04/24 05:47:02;;;;;;;9.63;7.05;;;;;;;;;;5038051;28;20037;-62
2022/04/24 05:49:28;;;;;;;9.43;6.65;;;;;;;;;;5037914;28;20037;-62
2022/04/24 05:51:54;;;;;;;12.20;6.95;;;;;;;;;;5036969;28;20033;-62
2022/04/24 05:54:20;;;;;;;11.65;7.15;;;;;;;;;;5038578;28;20045;-62
2022/04/24 05:56:46;;;;;;;8.93;6.57;;;;;;;;;;5037833;28;20077;-62
2022/04/24 05:59:12;;;;;;;7.93;6.13;;;;;;;;;;5035419;28;20073;-63
2022/04/24 06:01:38;;;;;;;12.35;7.25;;;;;;;;;;5037306;28;20045;-62
2022/04/24 06:04:04;;;;;;;10.55;6.82;;;;;;;;;;5037596;28;20051;-62
2022/04/24 06:06:32;;;;;;;9.63;5.88;;;;;;;;;;5037234;28;20061;-62
2022/04/24 06:08:58;;;;;;;10.40;6.80;;;;;;;;;;5037503;28;20049;-62
2022/04/24 06:11:24;;;;;;;11.27;6.60;;;;;;;;;;5037147;28;20533;-62
2022/04/24 06:13:50;;;;;;;10.45;6.88;;;;;;;;;;5034925;28;20109;-62
2022/04/24 06:16:16;;;;;;;9.80;6.85;;;;;;;;;;5037441;28;20048;-62
2022/04/24 06:18:42;;;;;;;10.13;6.78;;;;;;;;;;5035177;28;20045;-62
2022/04/24 06:21:08;;;;;;;10.10;7.55;;;;;;;;;;5035946;28;20076;-62
2022/04/24 06:23:34;;;;;;;12.93;7.60;;;;;;;;;;5037686;28;20034;-62
2022/04/24 06:26:00;;;;;;;10.15;6.55;;;;;;;;;;5036682;28;20045;-62
2022/04/24 06:28:26;;;;;;;10.55;7.40;;;;;;;;;;5037911;28;20034;-62
2022/04/24 06:30:52;;;;;;;10.77;7.20;;;;;;;;;;5038004;28;20038;-62
2022/04/24 06:33:18;;;;;;;11.18;6.88;;;;;;;;;;5037945;28;20163;-62
2022/04/24 06:35:47;;;;;;;10.93;7.03;;;;;;;;;;5036665;28;20088;-62
2022/04/24 06:38:13;;;;;;;12.85;7.38;;;;;;;;;;5036914;28;20041;-62
2022/04/24 06:40:39;;;;;;;8.98;7.13;;;;;;;;;;5036693;28;20056;-62
2022/04/24 06:43:06;;;;;;;9.50;7.10;;;;;;;;;;5035855;28;20044;-62
2022/04/24 06:45:33;;;;;;;10.73;6.85;;;;;;;;;;5036622;28;20311;-62
2022/04/24 06:48:01;;;;;;;10.73;7.82;;;;;;;;;;5035811;28;20318;-62
2022/04/24 06:50:28;;;;;;;12.88;6.55;;;;;;;;;;5035266;28;20037;-62
2022/04/24 06:52:57;;;;;;;9.40;7.18;;;;;;;;;;5036496;28;20152;-62
2022/04/24 06:55:24;;;;;;;10.80;6.90;;;;;;;;;;5037771;28;20404;-62
2022/04/24 06:57:51;;;;;;;11.05;7.20;;;;;;;;;;5037495;28;20103;-62
2022/04/24 07:00:18;;;;;;;10.75;6.28;;;;;;;;;;5037074;28;20551;-62
2022/04/24 07:02:44;;;;;;;10.18;6.18;;;;;;;;;;5037336;28;20056;-62
2022/04/24 07:05:10;;;;;;;11.80;6.38;;;;;;;;;;5037173;28;20057;-62
2022/04/24 07:07:36;;;;;;;10.63;7.03;;;;;;;;;;5036632;28;20088;-62
2022/04/24 07:10:02;;;;;;;10.15;6.45;;;;;;;;;;5037321;28;20052;-62
2022/04/24 07:12:29;;;;;;;9.38;6.43;;;;;;;;;;5037914;28;20277;-62
2022/04/24 07:14:56;;;;;;;8.48;6.28;;;;;;;;;;5035768;28;20085;-62
2022/04/24 07:17:22;;;;;;;8.20;6.20;;;;;;;;;;5035751;28;20115;-62
2022/04/24 07:19:48;;;;;;;11.93;7.22;;;;;;;;;;5036579;28;20049;-62
2022/04/24 07:22:14;;;;;;;11.00;6.70;;;;;;;;;;5036572;28;20033;-62
2022/04/24 07:24:40;;;;;;;8.70;6.57;;;;;;;;;;5036469;28;20381;-62
2022/04/24 07:27:06;;;;;;;9.55;5.32;;;;;;;;;;5035996;28;20052;-62
2022/04/24 07:29:32;;;;;;;9.45;6.20;;;;;;;;;;5035984;28;20041;-62
2022/04/24 07:31:58;;;;;;;9.80;6.55;;;;;;;;;;5036981;28;20072;-62
2022/04/24 07:34:24;;;;;;;8.20;5.85;;;;;;;;;;5036126;28;20133;-62
2022/04/24 07:36:50;;;;;;;10.35;6.95;;;;;;;;;;5036358;28;20064;-62
2022/04/24 07:39:16;;;;;;;8.48;5.97;;;;;;;;;;5036454;28;20475;-62
2022/04/24 07:41:42;;;;;;;8.52;5.35;;;;;;;;;;5036915;28;20042;-62
2022/04/24 07:44:08;;;;;;;8.68;5.13;;;;;;;;;;5034974;28;20399;-62
2022/04/24 07:46:34;;;;;;;7.15;5.03;;;;;;;;;;5036319;28;20458;-62
2022/04/24 07:49:00;;;;;;;7.65;5.00;;;;;;;;;;5033984;28;20088;-62
2022/04/24 07:51:27;;;;;;;6.63;4.65;;;;;;;;;;5035420;28;20045;-62
2022/04/24 07:53:53;;;;;;;7.18;4.95;;;;;;;;;;5035519;28;20045;-62
2022/04/24 07:56:21;;;;;;;7.25;4.88;;;;;;;;;;5036244;28;20503;-62
2022/04/24 07:58:47;;;;;;;5.05;3.85;;;;;;;;;;5034571;28;20120;-62
2022/04/24 08:01:16;;;;;;;7.95;4.63;;;;;;;;;;5036115;28;20076;-62
2022/04/24 08:03:42;;;;;;;6.53;4.60;;;;;;;;;;5035325;28;20045;-62
2022/04/24 08:06:08;;;;;;;8.82;4.38;;;;;;;;;;5034937;28;20060;-62
2022/04/24 08:08:34;;;;;;;10.63;4.90;;;;;;;;;;5034862;28;20041;-62
2022/04/24 08:11:00;;;;;;;5.32;4.18;;;;;;;;;;5035321;28;20038;-62
2022/04/24 08:13:27;;;;;;;5.85;3.92;;;;;;;;;;5035102;28;20097;-62
2022/04/24 08:15:54;;;;;;;8.32;3.95;;;;;;;;;;5035071;28;20041;-62
2022/04/24 08:18:20;;;;;;;6.78;4.05;;;;;;;;;;5034637;28;20095;-62
2022/04/24 08:20:47;;;;;;;4.88;3.40;;;;;;;;;;5034859;28;20068;-62
2022/04/24 08:23:15;;;;;;;5.25;3.58;;;;;;;;;;5034083;28;20045;-62
2022/04/24 08:25:41;;;;;;;5.07;3.78;;;;;;;;;;5035837;28;20049;-62
2022/04/24 08:28:09;;;;;;;4.80;3.38;;;;;;;;;;5034860;28;20033;-62
2022/04/24 08:30:37;;;;;;;3.60;2.90;;;;;;;;;;5033477;28;20045;-62
2022/04/24 08:33:03;;;;;;;3.63;3.00;;;;;;;;;;5035326;28;20049;-62
2022/04/24 08:35:29;;;;;;;5.30;2.90;;;;;;;;;;5035037;28;20053;-62
2022/04/24 08:37:55;;;;;;;5.72;2.88;;;;;;;;;;5035797;28;20049;-62
2022/04/24 08:40:24;;;;;;;3.97;2.38;;;;;;;;;;5034867;28;20040;-62
2022/04/24 08:42:50;;;;;;;4.00;2.60;;;;;;;;;;5034705;28;20073;-62
2022/04/24 08:45:16;;;;;;;4.22;2.40;;;;;;;;;;5034535;28;20047;-62
2022/04/24 08:47:43;;;;;;;3.72;2.38;;;;;;;;;;5034839;28;20439;-62
2022/04/24 08:50:10;;;;;;;5.30;2.50;;;;;;;;;;5034493;28;20045;-62
2022/04/24 08:52:36;;;;;;;3.53;2.60;;;;;;;;;;5033281;28;20099;-62
2022/04/24 08:55:03;;;;;;;4.78;2.25;;;;;;;;;;5035151;28;20472;-62
2022/04/24 08:57:32;;;;;;;2.35;2.00;;;;;;;;;;5033881;28;20401;-62
2022/04/24 08:59:59;;;;;;;4.32;2.25;;;;;;;;;;5034455;28;20044;-62
2022/04/24 09:02:25;;;;;;;6.45;2.70;;;;;;;;;;5034564;28;20052;-62
2022/04/24 09:04:53;;;;;;;3.55;2.45;;;;;;;;;;5034092;28;20058;-62
2022/04/24 09:07:19;;;;;;;3.97;2.30;;;;;;;;;;5034889;28;20132;-62
2022/04/24 09:09:50;;;;;;;4.07;2.20;;;;;;;;;;5034806;28;20068;-62
2022/04/24 09:12:23;;;;;;;6.40;2.42;;;;;;;;;;5036527;28;20038;-62
2022/04/24 09:14:50;;;;;;;7.15;2.60;;;;;;;;;;5038764;28;20120;-63
2022/04/24 09:17:17;;;;;;;6.63;2.88;;;;;;;;;;5038294;28;20052;-63
2022/04/24 09:19:43;;;;;;;5.53;2.38;;;;;;;;;;5037776;28;20041;-62
2022/04/24 09:22:10;;;;;;;5.35;2.53;;;;;;;;;;5038625;28;20079;-62
2022/04/24 09:24:49;;;;;;;4.72;2.90;;;;;;;;;;5038034;28;20084;-63
2022/04/24 09:27:25;;;;;;;4.18;2.78;;;;;;;;;;5037439;28;20076;-63
2022/04/24 09:29:54;;;;;;;4.22;2.58;;;;;;;;;;5038147;28;20033;-63
2022/04/24 09:32:20;;;;;;;5.85;2.90;;;;;;;;;;5037769;28;20044;-63
2022/04/24 09:34:46;;;;;;;4.13;3.03;;;;;;;;;;5037357;28;20042;-63
2022/04/24 09:37:12;;;;;;;5.53;2.92;;;;;;;;;;5036214;28;20056;-63
2022/04/24 09:39:38;;;;;;;8.27;3.10;;;;;;;;;;5035836;28;20069;-63
2022/04/24 09:42:04;;;;;;;4.63;2.92;;;;;;;;;;5036395;28;20111;-63
2022/04/24 09:44:41;;;;;;;4.32;2.55;;;;;;;;;;5037193;28;20041;-63
2022/04/24 09:47:07;;;;;;;6.03;3.10;;;;;;;;;;5037741;28;20038;-63
2022/04/24 09:49:38;;;;;;;5.05;2.80;;;;;;;;;;5036024;28;20392;-63
2022/04/24 09:52:08;;;;;;;6.90;2.85;;;;;;;;;;5035679;28;20049;-63
2022/04/24 09:54:36;;;;;;;5.57;3.33;;;;;;;;;;5037687;28;20502;-63
2022/04/24 09:57:03;;;;;;;4.40;3.20;;;;;;;;;;5036784;28;20423;-63
2022/04/24 09:59:30;;;;;;;7.35;2.88;;;;;;;;;;5036412;28;20053;-63
2022/04/24 10:01:57;;;;;;;7.50;3.67;;;;;;;;;;5036894;28;20064;-63
2022/04/24 10:04:24;;;;;;;5.78;3.45;;;;;;;;;;5034408;28;20508;-63
2022/04/24 10:06:50;;;;;;;4.03;3.00;;;;;;;;;;5037513;28;20484;-63
2022/04/24 10:09:17;;;;;;;7.10;2.92;;;;;;;;;;5037221;28;20117;-63
2022/04/24 10:11:43;;;;;;;8.02;3.28;;;;;;;;;;5051303;28;20103;-63
2022/04/24 10:14:12;;;;;;;7.72;3.22;;;;;;;;;;5037056;28;20124;-63
2022/04/24 10:16:50;;;;;;;3.78;2.70;;;;;;;;;;5036736;28;20500;-63
2022/04/24 10:19:16;;;;;;;4.68;2.53;;;;;;;;;;5035556;28;20404;-63
2022/04/24 10:22:00;;;;;;;8.20;2.85;;;;;;;;;;5036070;28;20132;-63
2022/04/24 10:24:37;;;;;;;5.93;3.65;;;;;;;;;;5036613;28;20038;-63
2022/04/24 10:27:03;;;;;;;6.97;2.55;;;;;;;;;;5035923;28;20362;-63
2022/04/24 10:29:29;;;;;;;4.00;2.60;;;;;;;;;;5051568;28;20048;-63
2022/04/24 10:31:56;;;;;;;5.13;2.60;;;;;;;;;;5036001;28;20186;-63
2022/04/24 10:34:23;;;;;;;6.13;2.50;;;;;;;;;;5035336;28;20041;-63
2022/04/24 10:36:58;;;;;;;5.82;2.13;;;;;;;;;;5036386;28;20045;-63
2022/04/24 10:39:28;;;;;;;4.22;2.08;;;;;;;;;;5034835;28;20132;-63
2022/04/24 10:41:55;;;;;;;3.28;2.33;;;;;;;;;;5034325;28;20033;-63
2022/04/24 10:44:22;;;;;;;4.25;2.38;;;;;;;;;;5035835;28;20045;-63
2022/04/24 10:46:49;;;;;;;3.70;2.03;;;;;;;;;;5034076;28;20045;-63
2022/04/24 10:49:19;;;;;;;5.22;2.15;;;;;;;;;;5034851;28;20037;-63
2022/04/24 10:51:46;;;;;;;3.78;2.20;;;;;;;;;;5033883;28;20553;-63
2022/04/24 10:54:16;;;;;;;2.95;2.25;;;;;;;;;;5035823;28;20416;-63
2022/04/24 10:56:43;;;;;;;6.10;2.38;;;;;;;;;;5035055;28;20052;-63
2022/04/24 10:59:10;;;;;;;3.97;2.17;;;;;;;;;;5035559;28;20678;-63
2022/04/24 11:01:37;;;;;;;3.97;2.08;;;;;;;;;;5035485;28;20400;-63
2022/04/24 11:04:05;;;;;;;3.70;2.08;;;;;;;;;;5033817;28;20045;-63
2022/04/24 11:06:31;;;;;;;3.22;1.92;;;;;;;;;;5034913;28;20058;-63
2022/04/24 11:09:05;;;;;;;2.65;2.30;;;;;;;;;;5034707;28;20044;-63
2022/04/24 11:11:33;;;;;;;3.42;2.00;;;;;;;;;;5033893;28;20049;-63
2022/04/24 11:14:01;;;;;;;5.30;2.35;;;;;;;;;;5034701;28;20053;-63
2022/04/24 11:16:27;;;;;;;2.80;2.00;;;;;;;;;;5034699;28;20507;-63
2022/04/24 11:18:54;;;;;;;2.15;1.92;;;;;;;;;;5034279;28;20042;-63
2022/04/24 11:21:21;;;;;;;4.80;2.10;;;;;;;;;;5034386;28;20049;-63
2022/04/24 11:23:47;;;;;;;3.15;1.80;;;;;;;;;;5034964;28;20052;-63
2022/04/24 11:26:14;;;;;;;3.58;2.17;;;;;;;;;;5034433;28;20422;-63
2022/04/24 11:28:45;;;;;;;3.75;2.15;;;;;;;;;;5034394;28;20034;-63
2022/04/24 11:31:13;;;;;;;3.10;2.10;;;;;;;;;;5034467;28;20536;-63
2022/04/24 11:33:49;;;;;;;2.20;1.88;;;;;;;;;;5033831;28;20038;-63
2022/04/24 11:36:15;;;;;;;2.38;2.10;;;;;;;;;;5034835;28;20122;-63
2022/04/24 11:38:41;;;;;;;3.03;1.90;;;;;;;;;;5049908;28;20045;-63
2022/04/24 11:41:07;;;;;;;3.50;2.03;;;;;;;;;;5032828;28;20117;-63
2022/04/24 11:43:39;;;;;;;3.30;2.20;;;;;;;;;;5034259;28;20102;-63
2022/04/24 11:51:34;;;;;;;3.35;2.35;;;;;;;;;;5034179;28;20094;-63
2022/04/24 11:54:00;;;;;;;3.85;2.03;;;;;;;;;;5033542;28;20116;-63
2022/04/24 11:56:26;;;;;;;3.97;2.35;;;;;;;;;;5033984;28;20142;-63
2022/04/24 11:58:52;;;;;;;3.22;2.05;;;;;;;;;;5034067;28;20403;-63
2022/04/24 12:01:20;;;;;;;2.95;2.00;;;;;;;;;;5033950;28;20034;-63
2022/04/24 12:03:46;;;;;;;6.57;1.80;;;;;;;;;;5033722;28;20447;-63
2022/04/24 12:06:16;;;;;;;4.22;1.90;;;;;;;;;;5033050;28;20058;-63
2022/04/24 12:08:46;;;;;;;3.45;2.10;;;;;;;;;;5034246;28;20065;-63
2022/04/24 12:11:25;;;;;;;3.28;1.88;;;;;;;;;;5034115;28;20045;-63
2022/04/24 12:14:01;;;;;;;5.22;2.10;;;;;;;;;;5033685;28;20041;-63
2022/04/24 12:16:27;;;;;;;3.65;1.88;;;;;;;;;;5032844;28;20065;-63
2022/04/24 12:18:57;;;;;;;4.07;1.95;;;;;;;;;;5031790;28;20037;-63
2022/04/24 12:21:23;;;;;;;2.20;1.60;;;;;;;;;;5033286;28;20120;-63
2022/04/24 12:23:50;;;;;;;2.88;2.00;;;;;;;;;;5032892;28;20045;-63
2022/04/24 12:26:16;;;;;;;3.20;1.90;;;;;;;;;;5033315;28;20037;-63
2022/04/24 12:28:42;;;;;;;5.40;1.70;;;;;;;;;;5033216;28;20396;-63
2022/04/24 12:31:19;;;;;;;3.85;1.63;;;;;;;;;;5032755;28;20067;-63
2022/04/24 12:33:48;;;;;;;3.63;2.65;;;;;;;;;;5033461;28;20041;-63
2022/04/24 12:36:15;;;;;;;4.13;2.20;;;;;;;;;;5033085;28;20041;-63
2022/04/24 12:38:54;;;;;;;3.42;2.10;;;;;;;;;;5031184;28;20060;-63
2022/04/24 12:41:21;;;;;;;4.30;2.10;;;;;;;;;;5033780;28;20053;-63
2022/04/24 12:43:47;;;;;;;4.75;2.20;;;;;;;;;;5032955;28;20048;-63
2022/04/24 12:46:14;;;;;;;3.83;2.25;;;;;;;;;;5035993;28;20396;-63
2022/04/24 12:48:53;;;;;;;4.93;2.55;;;;;;;;;;5039244;28;20063;-63
2022/04/24 12:51:23;;;;;;;5.25;2.50;;;;;;;;;;5039315;28;20411;-63
2022/04/24 12:53:54;;;;;;;5.93;2.85;;;;;;;;;;5038259;28;20614;-63
2022/04/24 12:56:20;;;;;;;4.00;2.55;;;;;;;;;;5038576;28;20049;-63
2022/04/24 12:58:47;;;;;;;4.10;2.55;;;;;;;;;;5038679;28;20095;-63
2022/04/24 13:01:14;;;;;;;5.30;2.67;;;;;;;;;;5036584;28;20041;-64
2022/04/24 13:03:40;;;;;;;2.88;2.25;;;;;;;;;;5037714;28;20065;-64
2022/04/24 13:06:16;;;;;;;4.05;2.38;;;;;;;;;;5037784;28;20096;-64
2022/04/24 13:08:43;;;;;;;3.13;2.33;;;;;;;;;;5037149;28;20050;-64
2022/04/24 13:11:09;;;;;;;3.92;2.15;;;;;;;;;;5037791;28;20037;-64
2022/04/24 13:13:35;;;;;;;3.97;2.42;;;;;;;;;;5036286;28;20045;-64
2022/04/24 13:18:47;;;;;;;2.78;1.95;;;;;;;;;;5037230;28;20049;-64
2022/04/24 13:21:13;;;;;;;3.42;2.50;;;;;;;;;;5037131;28;20045;-64
2022/04/24 13:23:41;;;;;;;3.03;1.95;;;;;;;;;;5036353;28;20045;-64
2022/04/24 13:26:08;;;;;;;4.22;2.60;;;;;;;;;;5037164;28;20038;-64
2022/04/24 13:28:34;;;;;;;6.47;2.47;;;;;;;;;;5037195;28;20073;-62
2022/04/24 13:31:01;;;;;;;3.30;2.33;;;;;;;;;;5037500;28;20049;-62
2022/04/24 13:33:29;;;;;;;6.45;2.75;;;;;;;;;;5037853;28;20120;-62
2022/04/24 13:35:55;;;;;;;5.78;2.67;;;;;;;;;;5019567;28;20061;-62
2022/04/24 13:38:21;;;;;;;5.03;2.30;;;;;;;;;;5037430;28;20084;-62
2022/04/24 13:40:54;;;;;;;2.55;2.28;;;;;;;;;;5037363;28;20037;-62
2022/04/24 13:43:21;;;;;;;7.32;2.90;;;;;;;;;;5037687;28;20068;-62
2022/04/24 13:45:48;;;;;;;3.15;2.30;;;;;;;;;;5037333;28;20396;-62
2022/04/24 13:48:14;;;;;;;4.93;2.60;;;;;;;;;;5038694;28;20064;-62
2022/04/24 13:50:40;;;;;;;2.25;2.03;;;;;;;;;;5037986;28;20045;-62
2022/04/24 13:53:06;;;;;;;3.45;2.60;;;;;;;;;;5038305;28;20514;-62
2022/04/24 13:55:36;;;;;;;3.92;1.83;;;;;;;;;;5038568;28;20550;-62
2022/04/24 13:58:03;;;;;;;4.18;2.55;;;;;;;;;;5035652;28;20049;-62
2022/04/24 14:00:31;;;;;;;3.05;2.58;;;;;;;;;;5033492;28;20060;-62
2022/04/24 14:02:57;;;;;;;3.90;2.42;;;;;;;;;;5035442;28;20056;-62
2022/04/24 14:05:25;;;;;;;3.72;2.30;;;;;;;;;;5035203;28;20053;-62
2022/04/24 14:07:52;;;;;;;3.08;2.33;;;;;;;;;;5034665;28;20095;-64
2022/04/24 14:10:18;;;;;;;4.72;2.55;;;;;;;;;;5033383;28;20055;-64
2022/04/24 14:12:45;;;;;;;3.42;2.35;;;;;;;;;;5033826;28;20041;-64
2022/04/24 14:15:11;;;;;;;3.58;2.75;;;;;;;;;;5033761;28;20498;-64
2022/04/24 14:17:37;;;;;;;8.20;3.13;;;;;;;;;;5034397;28;20464;-64
2022/04/24 14:20:04;;;;;;;5.70;2.22;;;;;;;;;;5032286;28;20373;-64
2022/04/24 14:22:30;;;;;;;4.15;2.63;;;;;;;;;;5032974;28;20041;-64
2022/04/24 14:24:56;;;;;;;5.18;2.40;;;;;;;;;;5033860;28;20064;-64
2022/04/24 14:27:22;;;;;;;4.35;2.60;;;;;;;;;;5033407;28;20127;-64
2022/04/24 14:29:48;;;;;;;4.35;2.55;;;;;;;;;;5033857;28;20034;-64
2022/04/24 14:32:15;;;;;;;3.50;2.15;;;;;;;;;;5034449;28;20065;-64
2022/04/24 14:34:44;;;;;;;4.85;2.40;;;;;;;;;;5034933;28;20046;-64
2022/04/24 14:37:10;;;;;;;2.30;2.00;;;;;;;;;;5033946;28;20514;-64
2022/04/24 14:39:37;;;;;;;4.68;2.10;;;;;;;;;;5035102;28;20447;-63
2022/04/24 14:42:05;;;;;;;3.58;2.40;;;;;;;;;;5032997;28;20041;-63
2022/04/24 14:44:32;;;;;;;3.30;2.33;;;;;;;;;;5034575;28;20050;-63
2022/04/24 14:57:58;;;;;;;3.45;2.25;;;;;;;;;;5032687;28;20104;-64
2022/04/24 15:00:26;;;;;;;3.33;2.33;;;;;;;;;;5032257;28;20072;-64